createdAt,value
2017-03-23T00:00:57.840Z,21.47
2017-03-23T00:02:03.422Z,20.62
2017-03-23T00:03:09.922Z,22.98
2017-03-23T00:04:15.496Z,22.22
2017-03-23T00:05:20.940Z,21.87
2017-03-23T00:06:25.685Z,24.47
2017-03-23T00:07:31.241Z,21.70
2017-03-23T00:08:36.783Z,23.50
2017-03-23T00:09:42.348Z,22.77
2017-03-23T00:10:47.152Z,22.43
2017-03-23T00:11:52.761Z,20.77
2017-03-23T00:12:58.361Z,21.20
2017-03-23T00:14:05.737Z,20.72
2017-03-23T00:15:10.578Z,21.90
2017-03-23T00:16:16.952Z,22.33
2017-03-23T00:17:22.596Z,20.98
2017-03-23T00:18:27.340Z,22.02
2017-03-23T00:19:33.852Z,23.17
2017-03-23T00:20:38.593Z,21.85
2017-03-23T00:21:44.112Z,22.12
2017-03-23T00:22:50.352Z,23.52
2017-03-23T00:23:56.069Z,25.03
2017-03-23T00:25:02.616Z,22.07
2017-03-23T00:26:08.200Z,22.58
2017-03-23T00:27:14.209Z,24.23
2017-03-23T00:28:19.985Z,23.63
2017-03-23T00:29:25.584Z,25.18
2017-03-23T00:30:30.664Z,23.65
2017-03-23T00:31:36.105Z,23.18
2017-03-23T00:32:41.660Z,22.73
2017-03-23T00:33:48.024Z,24.18
2017-03-23T00:34:52.893Z,24.48
2017-03-23T00:35:58.549Z,24.05
2017-03-23T00:37:04.036Z,23.07
2017-03-23T00:38:10.345Z,23.42
2017-03-23T00:39:15.045Z,22.67
2017-03-23T00:40:21.576Z,20.52
2017-03-23T00:41:27.133Z,19.88
2017-03-23T00:42:31.921Z,20.07
2017-03-23T00:43:37.369Z,21.50
2017-03-23T00:44:43.700Z,20.70
2017-03-23T00:45:48.540Z,21.32
2017-03-23T00:46:54.233Z,22.98
2017-03-23T00:48:00.682Z,22.98
2017-03-23T00:49:05.360Z,22.63
2017-03-23T00:50:10.870Z,21.78
2017-03-23T00:51:15.573Z,21.60
2017-03-23T00:52:21.220Z,21.55
2017-03-23T00:53:26.779Z,20.38
2017-03-23T00:54:32.327Z,21.32
2017-03-23T00:55:38.676Z,22.82
2017-03-23T00:56:43.508Z,22.85
2017-03-23T00:57:49.906Z,23.27
2017-03-23T00:58:54.705Z,22.82
2017-03-23T01:00:01.187Z,22.65
2017-03-23T01:01:07.636Z,22.28
2017-03-23T01:02:12.495Z,22.50
2017-03-23T01:03:18.006Z,22.32
2017-03-23T01:04:22.761Z,22.98
2017-03-23T01:05:33.573Z,22.37
2017-03-23T01:06:44.075Z,22.18
2017-03-23T01:07:54.477Z,21.57
2017-03-23T01:09:05.127Z,21.48
2017-03-23T01:10:15.546Z,25.63
2017-03-23T01:11:27.044Z,21.22
2017-03-23T01:12:38.188Z,21.38
2017-03-23T01:13:49.828Z,21.67
2017-03-23T01:15:00.613Z,21.67
2017-03-23T01:16:11.145Z,23.07
2017-03-23T01:17:22.370Z,22.23
2017-03-23T01:18:29.269Z,22.65
2017-03-23T01:19:34.401Z,20.03
2017-03-23T01:20:40.714Z,20.45
2017-03-23T01:21:46.336Z,22.50
2017-03-23T01:22:51.088Z,21.58
2017-03-23T01:23:56.657Z,21.83
2017-03-23T01:25:01.439Z,20.42
2017-03-23T01:26:07.676Z,21.73
2017-03-23T01:27:14.266Z,22.22
2017-03-23T01:28:19.930Z,22.22
2017-03-23T01:29:25.504Z,20.52
2017-03-23T01:30:31.147Z,20.35
2017-03-23T01:31:36.985Z,20.88
2017-03-23T01:32:42.425Z,21.28
2017-03-23T01:33:48.038Z,20.43
2017-03-23T01:34:53.520Z,22.13
2017-03-23T01:35:58.180Z,21.00
2017-03-23T01:37:02.936Z,21.67
2017-03-23T01:38:08.574Z,20.57
2017-03-23T01:39:14.103Z,19.65
2017-03-23T01:40:18.809Z,21.02
2017-03-23T01:41:25.332Z,22.48
2017-03-23T01:42:30.059Z,21.43
2017-03-23T01:43:35.058Z,20.03
2017-03-23T01:44:41.242Z,20.73
2017-03-23T01:45:46.004Z,21.25
2017-03-23T01:46:51.592Z,19.75
2017-03-23T01:47:57.920Z,21.40
2017-03-23T01:49:02.744Z,20.65
2017-03-23T01:50:08.300Z,21.58
2017-03-23T01:51:14.741Z,22.25
2017-03-23T01:52:20.253Z,21.88
2017-03-23T01:53:25.109Z,20.05
2017-03-23T01:54:31.485Z,22.02
2017-03-23T01:55:36.412Z,21.38
2017-03-23T01:56:42.065Z,22.35
2017-03-23T01:57:47.678Z,22.52
2017-03-23T01:58:53.220Z,21.37
2017-03-23T01:59:58.823Z,21.70
2017-03-23T02:01:03.619Z,21.35
2017-03-23T02:02:10.120Z,22.00
2017-03-23T02:03:16.544Z,19.60
2017-03-23T02:04:21.340Z,19.80
2017-03-23T02:05:26.826Z,22.15
2017-03-23T02:06:32.501Z,20.83
2017-03-23T02:07:38.749Z,20.42
2017-03-23T02:08:43.682Z,21.33
2017-03-23T02:09:50.989Z,19.00
2017-03-23T02:10:56.621Z,20.87
2017-03-23T02:12:02.229Z,20.30
2017-03-23T02:13:07.816Z,21.57
2017-03-23T02:14:14.294Z,20.43
2017-03-23T02:15:19.960Z,20.60
2017-03-23T02:16:24.797Z,20.43
2017-03-23T02:17:31.628Z,20.52
2017-03-23T02:18:37.773Z,20.90
2017-03-23T02:19:43.562Z,20.18
2017-03-23T02:20:48.855Z,19.63
2017-03-23T02:21:55.081Z,19.27
2017-03-23T02:23:00.673Z,19.42
2017-03-23T02:24:05.438Z,20.92
2017-03-23T02:25:10.960Z,21.13
2017-03-23T02:26:15.685Z,21.83
2017-03-23T02:27:21.261Z,22.43
2017-03-23T02:28:27.722Z,21.98
2017-03-23T02:29:33.213Z,21.83
2017-03-23T02:30:38.426Z,21.85
2017-03-23T02:31:43.453Z,22.38
2017-03-23T02:32:48.980Z,21.62
2017-03-23T02:33:54.413Z,21.85
2017-03-23T02:35:00.056Z,22.08
2017-03-23T02:36:05.526Z,21.75
2017-03-23T02:37:10.413Z,22.08
2017-03-23T02:38:15.784Z,22.05
2017-03-23T02:39:22.072Z,21.30
2017-03-23T02:40:26.885Z,22.37
2017-03-23T02:41:32.605Z,22.53
2017-03-23T02:42:38.962Z,21.32
2017-03-23T02:43:43.822Z,21.03
2017-03-23T02:44:49.491Z,22.00
2017-03-23T02:45:55.100Z,24.43
2017-03-23T02:46:59.857Z,21.90
2017-03-23T02:48:06.206Z,21.72
2017-03-23T02:49:10.979Z,21.87
2017-03-23T02:50:17.343Z,22.18
2017-03-23T02:51:23.189Z,22.17
2017-03-23T02:52:28.799Z,21.15
2017-03-23T02:53:35.272Z,21.48
2017-03-23T02:54:40.031Z,22.83
2017-03-23T02:55:45.648Z,23.85
2017-03-23T02:56:51.194Z,20.88
2017-03-23T02:57:55.977Z,21.83
2017-03-23T02:59:01.532Z,23.40
2017-03-23T03:00:07.185Z,24.33
2017-03-23T03:01:13.561Z,22.62
2017-03-23T03:02:18.589Z,22.63
2017-03-23T03:03:24.285Z,24.67
2017-03-23T03:04:29.914Z,22.80
2017-03-23T03:05:34.560Z,23.30
2017-03-23T03:06:39.633Z,22.43
2017-03-23T03:07:45.124Z,23.33
2017-03-23T03:08:49.756Z,23.32
2017-03-23T03:09:56.081Z,24.17
2017-03-23T03:11:00.993Z,25.22
2017-03-23T03:12:06.617Z,23.55
2017-03-23T03:13:12.220Z,24.32
2017-03-23T03:14:17.886Z,22.77
2017-03-23T03:15:23.449Z,24.78
2017-03-23T03:16:29.486Z,23.75
2017-03-23T03:17:35.008Z,24.27
2017-03-23T03:18:39.940Z,23.37
2017-03-23T03:19:45.406Z,23.92
2017-03-23T03:20:50.978Z,24.93
2017-03-23T03:21:57.417Z,22.03
2017-03-23T03:23:02.357Z,23.03
2017-03-23T03:24:07.880Z,24.22
2017-03-23T03:25:12.634Z,23.17
2017-03-23T03:26:18.113Z,23.90
2017-03-23T03:27:24.518Z,21.77
2017-03-23T03:28:29.281Z,23.48
2017-03-23T03:29:34.785Z,25.65
2017-03-23T03:30:40.311Z,26.40
2017-03-23T03:31:46.009Z,24.28
2017-03-23T03:32:52.336Z,24.48
2017-03-23T03:33:57.964Z,24.93
2017-03-23T03:35:03.547Z,24.75
2017-03-23T03:36:09.096Z,23.52
2017-03-23T03:37:13.793Z,23.90
2017-03-23T03:38:20.148Z,23.33
2017-03-23T03:39:25.009Z,24.32
2017-03-23T03:40:30.655Z,25.00
2017-03-23T03:41:38.186Z,23.75
2017-03-23T03:42:43.907Z,22.92
2017-03-23T03:43:49.478Z,24.05
2017-03-23T03:44:55.146Z,25.32
2017-03-23T03:45:59.864Z,24.60
2017-03-23T03:47:06.265Z,22.28
2017-03-23T03:48:10.973Z,24.02
2017-03-23T03:49:17.211Z,23.80
2017-03-23T03:50:22.112Z,24.48
2017-03-23T03:51:27.637Z,24.83
2017-03-23T03:52:34.065Z,24.30
2017-03-23T03:53:39.556Z,24.42
2017-03-23T03:54:44.340Z,25.70
2017-03-23T03:55:48.971Z,25.37
2017-03-23T03:56:53.774Z,27.50
2017-03-23T03:57:59.262Z,26.48
2017-03-23T03:59:05.812Z,27.38
2017-03-23T04:00:11.310Z,27.33
2017-03-23T04:01:17.028Z,28.78
2017-03-23T04:02:21.792Z,23.83
2017-03-23T04:03:28.124Z,25.18
2017-03-23T04:04:33.666Z,28.18
2017-03-23T04:05:38.373Z,25.65
2017-03-23T04:06:44.843Z,31.03
2017-03-23T04:07:50.537Z,26.88
2017-03-23T04:08:55.988Z,26.70
2017-03-23T04:10:01.520Z,27.42
2017-03-23T04:11:07.161Z,26.17
2017-03-23T04:12:13.696Z,29.45
2017-03-23T04:13:19.259Z,27.07
2017-03-23T04:14:25.053Z,28.07
2017-03-23T04:15:29.706Z,25.55
2017-03-23T04:16:35.225Z,27.45
2017-03-23T04:17:40.017Z,27.37
2017-03-23T04:18:45.581Z,26.70
2017-03-23T04:19:51.140Z,25.37
2017-03-23T04:20:56.726Z,25.97
2017-03-23T04:22:02.338Z,26.88
2017-03-23T04:23:08.624Z,27.32
2017-03-23T04:24:14.177Z,25.28
2017-03-23T04:25:19.684Z,29.22
2017-03-23T04:26:25.357Z,30.32
2017-03-23T04:27:30.982Z,30.42
2017-03-23T04:28:35.879Z,28.08
2017-03-23T04:29:41.544Z,26.43
2017-03-23T04:30:47.820Z,27.18
2017-03-23T04:31:52.712Z,26.22
2017-03-23T04:32:58.103Z,26.98
2017-03-23T04:34:03.147Z,28.68
2017-03-23T04:35:09.504Z,26.43
2017-03-23T04:36:14.448Z,30.27
2017-03-23T04:37:20.017Z,27.82
2017-03-23T04:38:25.576Z,26.63
2017-03-23T04:39:31.244Z,26.85
2017-03-23T04:40:35.881Z,23.90
2017-03-23T04:41:42.356Z,26.17
2017-03-23T04:42:47.180Z,24.92
2017-03-23T04:43:52.785Z,25.63
2017-03-23T04:44:58.437Z,26.72
2017-03-23T04:46:04.070Z,27.18
2017-03-23T04:47:10.414Z,24.88
2017-03-23T04:48:15.410Z,26.38
2017-03-23T04:49:20.867Z,28.07
2017-03-23T04:50:27.244Z,28.52
2017-03-23T04:51:32.001Z,26.98
2017-03-23T04:52:38.180Z,27.28
2017-03-23T04:53:42.906Z,27.67
2017-03-23T04:54:48.365Z,27.32
2017-03-23T04:55:53.088Z,26.18
2017-03-23T04:56:58.680Z,26.57
2017-03-23T04:58:04.288Z,30.10
2017-03-23T04:59:10.460Z,27.15
2017-03-23T05:00:15.159Z,24.58
2017-03-23T05:01:20.739Z,24.92
2017-03-23T05:02:27.107Z,25.10
2017-03-23T05:03:32.897Z,26.40
2017-03-23T05:04:39.284Z,26.10
2017-03-23T05:05:44.105Z,28.63
2017-03-23T05:06:49.597Z,27.03
2017-03-23T05:07:55.744Z,27.40
2017-03-23T05:09:00.552Z,25.27
2017-03-23T05:10:06.236Z,27.63
2017-03-23T05:11:11.745Z,23.62
2017-03-23T05:12:17.384Z,23.90
2017-03-23T05:13:22.887Z,24.02
2017-03-23T05:14:27.808Z,24.90
2017-03-23T05:15:34.145Z,26.92
2017-03-23T05:16:38.936Z,25.32
2017-03-23T05:17:44.577Z,24.55
2017-03-23T05:18:50.037Z,24.68
2017-03-23T05:19:54.800Z,26.12
2017-03-23T05:21:00.276Z,24.45
2017-03-23T05:22:05.857Z,24.95
2017-03-23T05:23:11.496Z,26.17
2017-03-23T05:24:17.081Z,27.03
2017-03-23T05:25:22.040Z,27.57
2017-03-23T05:26:27.553Z,27.15
2017-03-23T05:27:32.649Z,27.10
2017-03-23T05:28:38.957Z,25.43
2017-03-23T05:29:43.974Z,25.93
2017-03-23T05:30:49.585Z,26.88
2017-03-23T05:31:55.179Z,28.40
2017-03-23T05:33:00.669Z,29.60
2017-03-23T05:34:07.025Z,24.92
2017-03-23T05:35:12.733Z,28.47
2017-03-23T05:36:18.365Z,26.77
2017-03-23T05:37:23.108Z,28.47
2017-03-23T05:38:28.569Z,25.22
2017-03-23T05:39:34.168Z,27.02
2017-03-23T05:40:39.636Z,30.52
2017-03-23T05:41:44.501Z,28.47
2017-03-23T05:42:50.012Z,27.23
2017-03-23T05:43:55.722Z,26.22
2017-03-23T05:45:01.225Z,28.08
2017-03-23T05:46:05.933Z,29.92
2017-03-23T05:47:11.569Z,29.37
2017-03-23T05:48:17.870Z,27.67
2017-03-23T05:49:23.367Z,29.48
2017-03-23T05:50:29.191Z,29.53
2017-03-23T05:51:33.895Z,30.15
2017-03-23T05:52:39.325Z,27.82
2017-03-23T05:53:44.973Z,31.83
2017-03-23T05:54:50.525Z,28.57
2017-03-23T05:55:56.141Z,32.62
2017-03-23T05:57:00.826Z,27.15
2017-03-23T05:58:06.452Z,31.02
2017-03-23T05:59:12.753Z,28.87
2017-03-23T06:00:18.451Z,31.87
2017-03-23T06:01:23.364Z,29.60
2017-03-23T06:02:28.902Z,28.15
2017-03-23T06:03:34.504Z,28.37
2017-03-23T06:04:40.038Z,30.37
2017-03-23T06:05:45.569Z,28.88
2017-03-23T06:06:51.245Z,27.87
2017-03-23T06:07:57.495Z,30.42
2017-03-23T06:09:02.416Z,31.18
2017-03-23T06:10:08.817Z,29.72
2017-03-23T06:11:15.214Z,29.57
2017-03-23T06:12:21.806Z,30.22
2017-03-23T06:13:26.676Z,29.67
2017-03-23T06:14:33.101Z,28.65
2017-03-23T06:15:37.990Z,28.60
2017-03-23T06:16:43.632Z,31.70
2017-03-23T06:17:49.334Z,26.77
2017-03-23T06:18:55.464Z,28.07
2017-03-23T06:20:01.048Z,29.82
2017-03-23T06:21:05.879Z,28.08
2017-03-23T06:22:11.474Z,28.60
2017-03-23T06:23:17.017Z,31.05
2017-03-23T06:24:22.705Z,30.87
2017-03-23T06:25:28.906Z,30.30
2017-03-23T06:26:33.693Z,32.33
2017-03-23T06:27:39.447Z,31.08
2017-03-23T06:28:45.611Z,28.65
2017-03-23T06:29:51.214Z,34.98
2017-03-23T06:30:56.260Z,31.82
2017-03-23T06:32:01.008Z,30.68
2017-03-23T06:33:06.476Z,30.17
2017-03-23T06:34:11.352Z,32.12
2017-03-23T06:35:16.911Z,33.25
2017-03-23T06:36:23.256Z,28.37
2017-03-23T06:37:29.013Z,32.22
2017-03-23T06:38:34.777Z,32.63
2017-03-23T06:39:40.444Z,29.45
2017-03-23T06:40:45.242Z,32.33
2017-03-23T06:41:50.936Z,27.25
2017-03-23T06:42:57.336Z,31.18
2017-03-23T06:44:02.221Z,32.60
2017-03-23T06:45:07.728Z,29.92
2017-03-23T06:46:13.401Z,29.28
2017-03-23T06:47:18.912Z,28.98
2017-03-23T06:48:23.794Z,29.55
2017-03-23T06:49:28.627Z,28.18
2017-03-23T06:50:34.124Z,27.55
2017-03-23T06:51:40.558Z,29.83
2017-03-23T06:52:46.146Z,28.07
2017-03-23T06:53:51.824Z,29.65
2017-03-23T06:54:57.492Z,28.95
2017-03-23T06:56:03.188Z,30.32
2017-03-23T06:57:08.169Z,28.37
2017-03-23T06:58:13.694Z,31.13
2017-03-23T06:59:19.276Z,29.82
2017-03-23T07:00:24.116Z,30.52
2017-03-23T07:01:30.589Z,29.33
2017-03-23T07:02:36.214Z,29.05
2017-03-23T07:03:41.769Z,29.22
2017-03-23T07:04:47.296Z,31.08
2017-03-23T07:05:52.135Z,30.63
2017-03-23T07:06:57.722Z,30.70
2017-03-23T07:08:03.859Z,31.50
2017-03-23T07:09:09.617Z,25.42
2017-03-23T07:10:15.489Z,28.22
2017-03-23T07:11:21.152Z,29.33
2017-03-23T07:12:27.796Z,28.72
2017-03-23T07:13:33.341Z,26.45
2017-03-23T07:14:39.045Z,29.95
2017-03-23T07:15:43.922Z,28.10
2017-03-23T07:16:49.608Z,27.40
2017-03-23T07:17:55.181Z,26.32
2017-03-23T07:19:01.557Z,28.38
2017-03-23T07:20:07.192Z,29.07
2017-03-23T07:21:12.869Z,27.58
2017-03-23T07:22:18.549Z,30.65
2017-03-23T07:23:23.469Z,28.93
2017-03-23T07:24:29.859Z,28.43
2017-03-23T07:25:34.647Z,29.72
2017-03-23T07:26:40.337Z,28.53
2017-03-23T07:27:45.161Z,28.52
2017-03-23T07:28:49.893Z,28.33
2017-03-23T07:29:55.496Z,27.37
2017-03-23T07:31:00.143Z,25.53
2017-03-23T07:32:06.529Z,27.10
2017-03-23T07:33:11.537Z,27.42
2017-03-23T07:34:17.062Z,26.35
2017-03-23T07:35:22.551Z,27.13
2017-03-23T07:36:27.441Z,27.57
2017-03-23T07:37:33.779Z,29.78
2017-03-23T07:38:39.341Z,25.93
2017-03-23T07:39:45.018Z,23.52
2017-03-23T07:40:50.605Z,28.57
2017-03-23T07:41:55.501Z,31.83
2017-03-23T07:43:01.745Z,25.63
2017-03-23T07:44:06.874Z,26.15
2017-03-23T07:45:12.536Z,27.72
2017-03-23T07:46:19.157Z,29.60
2017-03-23T07:47:25.428Z,28.73
2017-03-23T07:48:31.100Z,26.98
2017-03-23T07:49:35.873Z,25.70
2017-03-23T07:50:40.889Z,25.90
2017-03-23T07:51:47.125Z,27.75
2017-03-23T07:52:51.864Z,27.42
2017-03-23T07:53:58.234Z,26.77
2017-03-23T07:55:03.924Z,25.55
2017-03-23T07:56:09.481Z,26.65
2017-03-23T07:57:14.269Z,23.27
2017-03-23T07:58:20.823Z,25.40
2017-03-23T07:59:26.688Z,26.57
2017-03-23T08:00:31.568Z,23.75
2017-03-23T08:01:36.318Z,27.45
2017-03-23T08:02:46.832Z,24.55
2017-03-23T08:03:52.404Z,24.87
2017-03-23T08:04:58.016Z,24.85
2017-03-23T08:06:03.710Z,24.88
2017-03-23T08:07:10.233Z,25.53
2017-03-23T08:08:15.732Z,25.40
2017-03-23T08:09:21.458Z,24.28
2017-03-23T08:10:26.312Z,24.95
2017-03-23T08:11:31.885Z,26.60
2017-03-23T08:12:38.290Z,25.45
2017-03-23T08:13:43.860Z,25.65
2017-03-23T08:14:49.457Z,26.97
2017-03-23T08:15:54.205Z,24.52
2017-03-23T08:16:59.851Z,26.35
2017-03-23T08:18:05.522Z,24.15
2017-03-23T08:19:11.089Z,27.08
2017-03-23T08:20:17.589Z,25.72
2017-03-23T08:21:22.440Z,27.82
2017-03-23T08:22:28.177Z,27.48
2017-03-23T08:23:32.848Z,27.33
2017-03-23T08:24:41.113Z,25.97
2017-03-23T08:25:46.024Z,25.87
2017-03-23T08:26:52.426Z,26.58
2017-03-23T08:27:57.236Z,23.23
2017-03-23T08:29:03.653Z,25.17
2017-03-23T08:30:09.166Z,25.38
2017-03-23T08:31:14.780Z,27.43
2017-03-23T08:32:20.444Z,23.95
2017-03-23T08:33:25.293Z,25.38
2017-03-23T08:34:31.668Z,28.63
2017-03-23T08:35:36.388Z,24.27
2017-03-23T08:36:41.829Z,26.03
2017-03-23T08:37:47.472Z,32.15
2017-03-23T08:38:53.954Z,27.48
2017-03-23T08:39:59.373Z,27.72
2017-03-23T08:41:04.912Z,24.33
2017-03-23T08:42:10.516Z,25.52
2017-03-23T08:43:16.134Z,25.45
2017-03-23T08:44:21.025Z,30.53
2017-03-23T08:45:26.570Z,25.37
2017-03-23T08:46:32.925Z,24.62
2017-03-23T08:47:37.666Z,22.72
2017-03-23T08:48:43.853Z,23.03
2017-03-23T08:49:48.711Z,24.90
2017-03-23T08:50:54.362Z,25.10
2017-03-23T08:52:00.646Z,23.48
2017-03-23T08:53:06.220Z,27.67
2017-03-23T08:54:11.863Z,25.88
2017-03-23T08:55:16.742Z,27.02
2017-03-23T08:56:22.420Z,25.35
2017-03-23T08:57:28.078Z,25.58
2017-03-23T08:58:34.468Z,28.65
2017-03-23T08:59:39.257Z,25.98
2017-03-23T09:00:45.663Z,24.90
2017-03-23T09:01:50.405Z,28.02
2017-03-23T09:02:55.989Z,25.62
2017-03-23T09:04:02.281Z,22.45
2017-03-23T09:05:07.033Z,24.85
2017-03-23T09:06:11.734Z,23.07
2017-03-23T09:07:17.277Z,24.98
2017-03-23T09:08:22.919Z,23.47
2017-03-23T09:09:28.548Z,26.10
2017-03-23T09:10:34.143Z,25.60
2017-03-23T09:11:40.465Z,24.43
2017-03-23T09:12:45.945Z,24.83
2017-03-23T09:13:51.552Z,23.95
2017-03-23T09:14:57.274Z,24.03
2017-03-23T09:16:02.869Z,24.97
2017-03-23T09:17:08.529Z,26.43
2017-03-23T09:18:13.476Z,24.53
2017-03-23T09:19:19.830Z,23.95
2017-03-23T09:20:24.792Z,21.57
2017-03-23T09:21:30.268Z,23.37
2017-03-23T09:22:35.942Z,23.80
2017-03-23T09:23:41.444Z,23.65
2017-03-23T09:24:46.266Z,21.80
2017-03-23T09:25:51.677Z,23.90
2017-03-23T09:26:56.677Z,23.07
2017-03-23T09:28:02.997Z,20.25
2017-03-23T09:29:08.056Z,20.93
2017-03-23T09:30:14.272Z,23.02
2017-03-23T09:31:19.473Z,19.67
2017-03-23T09:32:25.529Z,22.53
2017-03-23T09:33:30.377Z,21.05
2017-03-23T09:34:35.187Z,21.57
2017-03-23T09:35:41.697Z,21.00
2017-03-23T09:36:46.476Z,20.03
2017-03-23T09:37:51.226Z,20.20
2017-03-23T09:38:57.596Z,20.40
2017-03-23T09:40:07.244Z,22.57
2017-03-23T09:41:12.082Z,21.02
2017-03-23T09:42:19.014Z,21.45
2017-03-23T09:43:24.141Z,23.55
2017-03-23T09:44:28.834Z,23.65
2017-03-23T09:45:34.357Z,21.15
2017-03-23T09:46:39.905Z,22.15
2017-03-23T09:47:44.557Z,21.85
2017-03-23T09:48:50.893Z,21.95
2017-03-23T09:49:56.273Z,21.90
2017-03-23T09:51:01.392Z,20.95
2017-03-23T09:52:07.837Z,22.73
2017-03-23T09:53:12.641Z,21.30
2017-03-23T09:54:19.064Z,24.82
2017-03-23T09:55:25.485Z,21.48
2017-03-23T09:56:31.048Z,22.90
2017-03-23T09:57:35.766Z,20.87
2017-03-23T09:58:41.188Z,23.85
2017-03-23T09:59:46.910Z,22.03
2017-03-23T10:00:52.612Z,22.68
2017-03-23T10:01:58.292Z,24.17
2017-03-23T10:03:03.816Z,24.17
2017-03-23T10:04:08.600Z,22.22
2017-03-23T10:05:14.901Z,22.53
2017-03-23T10:06:21.905Z,20.52
2017-03-23T10:07:27.529Z,19.30
2017-03-23T10:08:33.069Z,20.92
2017-03-23T10:09:38.692Z,21.03
2017-03-23T10:10:43.644Z,22.07
2017-03-23T10:11:49.968Z,23.13
2017-03-23T10:12:54.785Z,20.28
2017-03-23T10:14:00.349Z,19.55
2017-03-23T10:15:05.954Z,18.72
2017-03-23T10:16:11.988Z,19.00
2017-03-23T10:17:17.189Z,19.62
2017-03-23T10:18:22.924Z,19.95
2017-03-23T10:19:28.496Z,19.78
2017-03-23T10:20:34.108Z,19.48
2017-03-23T10:21:39.776Z,18.35
2017-03-23T10:22:45.382Z,19.05
2017-03-23T10:23:51.077Z,18.78
2017-03-23T10:24:55.860Z,17.82
2017-03-23T10:26:00.594Z,18.83
2017-03-23T10:27:06.184Z,18.42
2017-03-23T10:28:11.820Z,17.43
2017-03-23T10:29:18.194Z,18.40
2017-03-23T10:30:22.932Z,15.58
2017-03-23T10:31:29.305Z,17.75
2017-03-23T10:32:35.664Z,18.77
2017-03-23T10:33:41.508Z,18.58
2017-03-23T10:34:46.365Z,19.67
2017-03-23T10:35:51.930Z,19.52
2017-03-23T10:36:57.500Z,18.30
2017-03-23T10:38:02.213Z,17.35
2017-03-23T10:39:08.477Z,19.13
2017-03-23T10:40:15.249Z,18.33
2017-03-23T10:41:20.090Z,19.08
2017-03-23T10:42:25.624Z,16.72
2017-03-23T10:43:30.517Z,17.13
2017-03-23T10:44:36.052Z,15.68
2017-03-23T10:45:41.636Z,15.80
2017-03-23T10:46:46.482Z,16.73
2017-03-23T10:47:52.004Z,16.25
2017-03-23T10:48:57.477Z,17.05
2017-03-23T10:50:02.268Z,18.75
2017-03-23T10:51:08.757Z,18.48
2017-03-23T10:52:13.408Z,16.38
2017-03-23T10:53:18.181Z,18.23
2017-03-23T10:54:24.717Z,18.27
2017-03-23T10:55:30.206Z,19.77
2017-03-23T10:56:35.801Z,16.35
2017-03-23T10:57:40.513Z,16.22
2017-03-23T10:58:46.908Z,19.95
2017-03-23T10:59:52.588Z,15.57
2017-03-23T11:00:57.508Z,18.80
2017-03-23T11:02:03.192Z,17.92
2017-03-23T11:03:08.768Z,16.58
2017-03-23T11:04:15.038Z,18.37
2017-03-23T11:05:19.795Z,17.95
2017-03-23T11:06:26.180Z,18.35
2017-03-23T11:07:31.088Z,18.07
2017-03-23T11:08:37.224Z,18.72
2017-03-23T11:09:43.128Z,17.28
2017-03-23T11:10:47.920Z,17.30
2017-03-23T11:11:53.715Z,17.52
2017-03-23T11:12:59.989Z,15.60
2017-03-23T11:14:04.861Z,14.80
2017-03-23T11:15:10.294Z,17.70
2017-03-23T11:16:16.718Z,16.33
2017-03-23T11:17:21.638Z,17.22
2017-03-23T11:18:27.112Z,16.50
2017-03-23T11:19:33.586Z,16.67
2017-03-23T11:20:39.193Z,14.70
2017-03-23T11:21:44.743Z,16.22
2017-03-23T11:22:49.533Z,15.53
2017-03-23T11:23:55.596Z,14.05
2017-03-23T11:25:00.832Z,14.92
2017-03-23T11:26:07.194Z,14.00
2017-03-23T11:27:12.793Z,14.65
2017-03-23T11:28:18.560Z,14.13
2017-03-23T11:29:23.340Z,15.48
2017-03-23T11:30:29.028Z,13.65
2017-03-23T11:31:34.676Z,13.45
2017-03-23T11:32:40.213Z,12.38
2017-03-23T11:33:44.901Z,15.23
2017-03-23T11:34:50.559Z,15.28
2017-03-23T11:35:55.380Z,14.15
2017-03-23T11:37:01.001Z,13.75
2017-03-23T11:38:06.460Z,13.58
2017-03-23T11:39:11.172Z,13.25
2017-03-23T11:40:16.828Z,15.20
2017-03-23T11:41:22.416Z,14.35
2017-03-23T11:42:28.029Z,13.28
2017-03-23T11:43:33.664Z,13.45
2017-03-23T11:44:39.309Z,13.23
2017-03-23T11:45:44.148Z,15.70
2017-03-23T11:46:48.868Z,12.68
2017-03-23T11:47:54.412Z,12.80
2017-03-23T11:49:00.145Z,13.32
2017-03-23T11:50:05.821Z,13.67
2017-03-23T11:51:10.853Z,12.43
2017-03-23T11:52:16.461Z,11.48
2017-03-23T11:53:22.036Z,13.20
2017-03-23T11:54:27.741Z,13.33
2017-03-23T11:55:34.128Z,13.13
2017-03-23T11:56:38.952Z,13.63
2017-03-23T11:57:44.423Z,13.68
2017-03-23T11:58:49.956Z,11.78
2017-03-23T11:59:54.769Z,12.70
2017-03-23T12:01:00.277Z,12.25
2017-03-23T12:02:05.128Z,12.05
2017-03-23T12:03:10.754Z,11.68
2017-03-23T12:04:16.192Z,11.20
2017-03-23T12:05:21.738Z,13.93
2017-03-23T12:06:27.354Z,13.10
2017-03-23T12:07:32.244Z,12.68
2017-03-23T12:08:37.693Z,13.80
2017-03-23T12:09:42.613Z,12.40
2017-03-23T12:10:48.210Z,11.93
2017-03-23T12:11:53.792Z,11.80
2017-03-23T12:13:00.096Z,11.85
2017-03-23T12:14:05.780Z,12.73
2017-03-23T12:15:10.456Z,10.73
2017-03-23T12:16:15.892Z,11.27
2017-03-23T12:17:21.013Z,11.73
2017-03-23T12:18:27.217Z,12.35
2017-03-23T12:19:32.014Z,11.90
2017-03-23T12:20:37.672Z,11.63
2017-03-23T12:21:43.180Z,12.58
2017-03-23T12:22:49.492Z,11.70
2017-03-23T12:23:54.460Z,11.12
2017-03-23T12:25:00.105Z,11.35
2017-03-23T12:26:05.509Z,11.17
2017-03-23T12:27:11.879Z,10.55
2017-03-23T12:28:17.556Z,11.78
2017-03-23T12:29:22.429Z,12.38
2017-03-23T12:30:27.193Z,9.30
2017-03-23T12:31:33.373Z,11.23
2017-03-23T12:32:38.192Z,9.87
2017-03-23T12:33:43.830Z,10.17
2017-03-23T12:34:50.169Z,9.98
2017-03-23T12:35:55.166Z,9.15
2017-03-23T12:37:00.789Z,9.10
2017-03-23T12:38:06.301Z,8.35
2017-03-23T12:39:12.636Z,9.65
2017-03-23T12:40:17.629Z,8.77
2017-03-23T12:41:22.791Z,9.72
2017-03-23T12:42:28.032Z,7.83
2017-03-23T12:43:33.680Z,7.97
2017-03-23T12:44:39.222Z,7.57
2017-03-23T12:45:44.482Z,7.40
2017-03-23T12:46:49.613Z,7.42
2017-03-23T12:47:54.294Z,7.32
2017-03-23T12:48:59.789Z,8.22
2017-03-23T12:50:05.265Z,6.93
2017-03-23T12:51:10.917Z,7.47
2017-03-23T12:52:16.445Z,7.92
2017-03-23T12:53:22.076Z,7.82
2017-03-23T12:54:27.688Z,7.37
2017-03-23T12:55:33.269Z,11.28
2017-03-23T12:56:39.716Z,8.05
2017-03-23T12:57:44.533Z,7.67
2017-03-23T12:58:50.848Z,7.28
2017-03-23T12:59:56.405Z,7.10
2017-03-23T13:01:02.267Z,6.68
2017-03-23T13:02:07.037Z,7.55
2017-03-23T13:03:12.588Z,8.88
2017-03-23T13:04:17.251Z,7.48
2017-03-23T13:05:22.848Z,6.72
2017-03-23T13:06:28.457Z,7.83
2017-03-23T13:07:34.008Z,6.95
2017-03-23T13:08:39.754Z,7.67
2017-03-23T13:09:45.264Z,9.97
2017-03-23T13:10:50.916Z,8.00
2017-03-23T13:11:57.261Z,8.13
2017-03-23T13:13:03.832Z,7.45
2017-03-23T13:14:09.325Z,7.08
2017-03-23T13:15:14.180Z,7.65
2017-03-23T13:16:19.740Z,8.53
2017-03-23T13:17:25.320Z,7.22
2017-03-23T13:18:30.048Z,7.30
2017-03-23T13:19:35.442Z,7.38
2017-03-23T13:20:40.974Z,7.90
2017-03-23T13:21:46.615Z,8.40
2017-03-23T13:22:52.172Z,11.83
2017-03-23T13:23:56.937Z,7.95
2017-03-23T13:25:03.315Z,8.70
2017-03-23T13:26:08.874Z,8.93
2017-03-23T13:27:14.445Z,8.32
2017-03-23T13:28:20.065Z,12.62
2017-03-23T13:29:25.839Z,7.82
2017-03-23T13:30:31.422Z,7.42
2017-03-23T13:31:36.974Z,9.28
2017-03-23T13:32:42.628Z,8.70
2017-03-23T13:33:47.632Z,9.32
2017-03-23T13:34:54.059Z,8.73
2017-03-23T13:35:59.604Z,10.03
2017-03-23T13:37:04.545Z,10.75
2017-03-23T13:38:10.091Z,10.15
2017-03-23T13:39:15.734Z,10.22
2017-03-23T13:40:22.157Z,10.05
2017-03-23T13:41:27.716Z,10.07
2017-03-23T13:42:33.482Z,9.95
2017-03-23T13:43:38.885Z,10.43
2017-03-23T13:44:43.681Z,9.50
2017-03-23T13:45:49.244Z,11.45
2017-03-23T13:46:54.849Z,9.90
2017-03-23T13:48:00.472Z,9.78
2017-03-23T13:49:06.129Z,9.53
2017-03-23T13:50:12.405Z,10.12
2017-03-23T13:51:18.028Z,12.07
2017-03-23T13:52:23.562Z,10.80
2017-03-23T13:53:28.272Z,12.13
2017-03-23T13:54:33.760Z,10.10
2017-03-23T13:55:39.494Z,9.15
2017-03-23T13:56:45.197Z,10.28
2017-03-23T13:57:50.057Z,9.47
2017-03-23T13:58:55.609Z,8.32
2017-03-23T14:00:01.260Z,8.83
2017-03-23T14:01:06.140Z,8.20
2017-03-23T14:02:12.573Z,7.92
2017-03-23T14:03:18.169Z,8.73
2017-03-23T14:04:23.049Z,9.60
2017-03-23T14:05:29.433Z,9.33
2017-03-23T14:06:34.974Z,9.52
2017-03-23T14:07:40.639Z,9.77
2017-03-23T14:08:45.581Z,9.28